Time;durP1;ratioP1;P1;durP2;ratioP2;P2;SDS_P1;SDS_P2;PMS_P1;PMS_P2;Temp;Humidity;BMP_temperature;BMP_pressure;BME280_temperature;BME280_humidity;BME280_pressure;Samples;Min_cycle;Max_cycle;Signal;HPM_P1;HPM_P2
2022/03/20 00:01:02;;;;;;;9.17;1.30;;;;;;;1.20;42.65;101308.94;5115604;28;20246;-82
2022/03/20 00:03:28;;;;;;;1.10;1.00;;;;;;;1.16;42.19;101307.13;5097612;28;20183;-82
2022/03/20 00:05:54;;;;;;;1.57;1.37;;;;;;;1.47;42.54;101306.88;5097292;28;20449;-82
2022/03/20 00:08:19;;;;;;;1.67;1.20;;;;;;;1.37;41.82;101296.34;5115728;28;20426;-81
2022/03/20 00:10:48;;;;;;;3.63;2.30;;;;;;;1.37;42.18;101292.03;5115398;28;20200;-82
2022/03/20 00:13:17;;;;;;;1.10;0.90;;;;;;;1.23;42.35;101293.50;5115203;28;20193;-82
2022/03/20 00:15:45;;;;;;;3.13;2.20;;;;;;;1.48;41.67;101290.53;5115825;28;20426;-82
2022/03/20 00:18:13;;;;;;;0.93;0.83;;;;;;;1.40;41.92;101286.06;5115213;28;20447;-82
2022/03/20 00:20:42;;;;;;;2.23;1.17;;;;;;;1.50;41.84;101288.84;5115164;28;20956;-81
2022/03/20 00:23:12;;;;;;;1.73;1.20;;;;;;;1.49;41.96;101292.28;5115145;28;20415;-82
2022/03/20 00:25:39;;;;;;;0.67;0.67;;;;;;;1.61;42.04;101277.00;5115585;28;20448;-82
2022/03/20 00:28:06;;;;;;;2.47;1.43;;;;;;;1.57;41.31;101288.09;5097041;28;20508;-82
2022/03/20 00:30:32;;;;;;;2.47;1.77;;;;;;;1.61;41.23;101282.16;5097025;28;20427;-82
2022/03/20 00:32:57;;;;;;;1.67;1.07;;;;;;;1.77;41.72;101283.28;5114924;28;20423;-82
2022/03/20 00:35:23;;;;;;;6.13;1.10;;;;;;;1.90;40.89;101284.38;5114274;28;20503;-82
2022/03/20 00:37:48;;;;;;;2.63;1.23;;;;;;;1.96;40.56;101284.47;5114836;28;20620;-81
2022/03/20 00:40:14;;;;;;;2.50;1.20;;;;;;;2.09;40.77;101287.28;5096915;28;20207;-82
2022/03/20 00:42:39;;;;;;;4.37;2.07;;;;;;;1.79;40.87;101282.47;5115057;28;20194;-82
2022/03/20 00:45:05;;;;;;;2.60;1.93;;;;;;;1.66;40.94;101288.28;5114732;28;20224;-82
2022/03/20 00:47:31;;;;;;;2.03;0.93;;;;;;;1.75;40.33;101280.69;5114654;28;20183;-82
2022/03/20 00:49:57;;;;;;;6.50;1.37;;;;;;;1.60;41.18;101284.72;5096613;28;20423;-82
2022/03/20 00:52:22;;;;;;;2.57;1.60;;;;;;;1.34;41.57;101288.56;5114575;28;20189;-82
2022/03/20 00:54:48;;;;;;;1.40;1.10;;;;;;;1.63;41.44;101288.22;5114576;28;20174;-82
2022/03/20 00:57:13;;;;;;;2.60;1.73;;;;;;;1.51;41.26;101290.59;5114512;28;20578;-82
2022/03/20 00:59:39;;;;;;;0.53;0.53;;;;;;;1.38;41.98;101283.47;5114677;28;20186;-82
2022/03/20 01:02:05;;;;;;;4.10;1.23;;;;;;;1.43;41.97;101287.00;5114642;28;20171;-82
2022/03/20 01:04:31;;;;;;;1.70;1.60;;;;;;;1.64;41.53;101281.34;5114374;28;20178;-82
2022/03/20 01:07:00;;;;;;;2.93;1.57;;;;;;;1.58;42.06;101283.81;5096248;28;20198;-82
2022/03/20 01:09:28;;;;;;;93.50;30.07;;;;;;;1.45;42.51;101287.91;5114779;28;20411;-82
2022/03/20 01:11:55;;;;;;;7.40;3.67;;;;;;;1.22;42.87;101290.06;5114083;28;20497;-82
2022/03/20 01:14:20;;;;;;;2.40;1.60;;;;;;;1.17;43.31;101289.09;5114153;28;20892;-82
2022/03/20 01:16:46;;;;;;;1.60;1.03;;;;;;;0.92;44.26;101293.72;5114117;28;20412;-82
2022/03/20 01:19:11;;;;;;;1.47;1.20;;;;;;;1.11;44.23;101293.25;5114109;28;20176;-81
2022/03/20 01:21:37;;;;;;;3.43;1.83;;;;;;;1.11;44.39;101288.09;5096142;28;20197;-82
2022/03/20 01:24:03;;;;;;;2.23;1.50;;;;;;;1.05;44.80;101298.28;5114022;28;20262;-82
2022/03/20 01:26:29;;;;;;;3.20;1.43;;;;;;;0.71;45.24;101294.13;5114104;28;20305;-82
2022/03/20 01:28:55;;;;;;;1.53;0.73;;;;;;;0.80;45.16;101293.47;5114189;28;20907;-82
2022/03/20 01:31:21;;;;;;;1.77;1.50;;;;;;;0.77;45.83;101290.81;5113934;28;20177;-81
2022/03/20 01:33:46;;;;;;;1.40;1.10;;;;;;;0.81;45.41;101288.34;5114411;28;20476;-82
2022/03/20 01:36:12;;;;;;;3.03;2.00;;;;;;;0.89;45.26;101275.59;5113849;28;20172;-81
2022/03/20 01:38:37;;;;;;;5.07;1.97;;;;;;;0.63;45.53;101288.81;5113799;28;20576;-82
2022/03/20 01:41:03;;;;;;;3.80;1.17;;;;;;;0.68;45.37;101281.19;5113790;28;20622;-81
2022/03/20 01:43:28;;;;;;;1.13;0.87;;;;;;;0.65;45.18;101282.81;5095705;28;20599;-82
2022/03/20 01:45:54;;;;;;;0.57;0.50;;;;;;;0.57;45.10;101288.69;5094795;28;20192;-82
2022/03/20 01:48:20;;;;;;;1.07;0.70;;;;;;;0.61;45.33;101285.34;5113956;28;20168;-82
2022/03/20 01:50:45;;;;;;;1.17;0.90;;;;;;;0.61;45.38;101279.31;5113614;28;20239;-82
2022/03/20 01:53:11;;;;;;;6.60;1.63;;;;;;;0.69;44.97;101274.28;5095747;28;20208;-82
2022/03/20 01:55:37;;;;;;;1.33;0.93;;;;;;;0.63;45.13;101279.34;5095701;28;20180;-82
2022/03/20 01:58:02;;;;;;;3.67;1.87;;;;;;;0.58;44.47;101280.09;5095601;28;20244;-82
2022/03/20 02:00:28;;;;;;;2.93;1.27;;;;;;;0.66;44.64;101274.22;5113581;28;20176;-82
2022/03/20 02:02:55;;;;;;;3.67;1.17;;;;;;;0.59;45.08;101281.84;5113522;28;20181;-82
2022/03/20 02:05:21;;;;;;;3.43;1.90;;;;;;;0.81;44.83;101282.31;5113702;28;20169;-81
2022/03/20 02:07:48;;;;;;;5.30;1.47;;;;;;;0.63;45.23;101283.66;5113757;28;20415;-82
2022/03/20 02:10:14;;;;;;;0.70;0.70;;;;;;;0.40;45.63;101277.13;5113452;28;20418;-81
2022/03/20 02:12:41;;;;;;;3.80;1.60;;;;;;;0.50;45.38;101276.47;5113349;28;20826;-82
2022/03/20 02:15:10;;;;;;;4.80;1.30;;;;;;;0.44;45.74;101275.50;5095471;28;20419;-82
2022/03/20 02:17:36;;;;;;;2.20;1.80;;;;;;;0.34;46.00;101276.97;5095442;28;20858;-82
2022/03/20 02:20:08;;;;;;;2.30;1.57;;;;;;;0.47;45.99;101273.81;5113338;28;20414;-81
2022/03/20 02:22:37;;;;;;;1.33;1.10;;;;;;;0.51;46.06;101273.06;5113384;28;20882;-82
2022/03/20 02:25:08;;;;;;;5.70;2.00;;;;;;;0.56;45.83;101271.47;5113271;28;20883;-81
2022/03/20 02:27:34;;;;;;;4.00;1.90;;;;;;;0.48;46.09;101283.31;5095280;28;20996;-81
2022/03/20 02:30:03;;;;;;;3.57;2.30;;;;;;;0.31;46.68;101276.94;5113270;28;20425;-82
2022/03/20 02:32:32;;;;;;;3.93;2.00;;;;;;;0.36;46.60;101277.03;5113229;28;20875;-82
2022/03/20 02:35:01;;;;;;;1.23;0.63;;;;;;;0.23;46.88;101267.28;5095240;28;20419;-82
2022/03/20 02:37:28;;;;;;;4.13;1.97;;;;;;;0.24;47.17;101266.41;5095181;28;20818;-82
2022/03/20 02:39:56;;;;;;;1.50;1.10;;;;;;;0.10;47.49;101262.66;5113139;28;20758;-82
2022/03/20 02:42:23;;;;;;;8.40;2.20;;;;;;;-0.01;47.97;101275.31;5113101;28;20423;-83
2022/03/20 02:44:54;;;;;;;4.27;1.90;;;;;;;0.16;47.42;101268.81;5113057;28;20414;-82
2022/03/20 02:47:23;;;;;;;2.53;1.90;;;;;;;0.14;47.50;101269.63;5112989;28;20450;-82
2022/03/20 02:50:11;;;;;;;0.90;0.80;;;;;;;0.21;47.06;101271.53;5113020;28;20479;-82
2022/03/20 02:52:39;;;;;;;3.20;1.37;;;;;;;0.07;47.59;101272.91;5095098;28;20417;-82
2022/03/20 02:55:05;;;;;;;3.03;1.00;;;;;;;0.15;47.28;101273.94;5095022;28;20902;-82
2022/03/20 02:57:32;;;;;;;7.17;1.60;;;;;;;0.19;47.47;101284.38;5096106;28;20428;-82
2022/03/20 03:00:00;;;;;;;3.37;1.97;;;;;;;0.23;47.48;101268.16;5117006;28;20239;-82
2022/03/20 03:02:31;;;;;;;2.43;1.13;;;;;;;0.11;47.61;101274.69;5098730;28;20468;-82
2022/03/20 03:04:59;;;;;;;1.50;1.37;;;;;;;0.06;47.65;101281.47;5116882;28;20783;-82
2022/03/20 03:07:29;;;;;;;6.43;1.77;;;;;;;0.08;47.99;101275.50;5116486;28;20453;-82
2022/03/20 03:12:39;;;;;;;2.57;1.50;;;;;;;0.45;47.32;101272.06;5116803;28;20444;-82
2022/03/20 03:15:20;;;;;;;1.40;1.30;;;;;;;0.42;46.92;101269.44;5116465;28;20414;-82
2022/03/20 03:17:49;;;;;;;2.00;1.50;;;;;;;0.29;47.58;101268.25;5098406;28;20533;-82
2022/03/20 03:20:17;;;;;;;2.23;1.20;;;;;;;0.29;47.62;101267.41;5116308;28;20836;-82
2022/03/20 03:22:42;;;;;;;2.10;1.30;;;;;;;0.17;47.64;101262.84;5116258;28;20774;-82
2022/03/20 03:25:08;;;;;;;4.30;1.73;;;;;;;0.17;47.95;101273.16;5116256;28;20417;-82
2022/03/20 03:27:33;;;;;;;2.10;1.67;;;;;;;0.28;47.46;101273.41;5116152;28;20295;-82
2022/03/20 03:29:59;;;;;;;1.90;1.40;;;;;;;0.18;47.38;101276.59;5116191;28;20173;-82
2022/03/20 03:32:24;;;;;;;4.73;2.23;;;;;;;0.10;47.79;101273.84;5116111;28;20172;-82
2022/03/20 03:37:34;;;;;;;3.37;1.33;;;;;;;-0.01;48.30;101281.34;5116375;28;20523;-82
2022/03/20 03:40:02;;;;;;;1.70;0.97;;;;;;;-0.11;48.45;101293.97;5097983;28;20418;-83
2022/03/20 03:42:30;;;;;;;1.73;1.50;;;;;;;0.11;47.85;101297.91;5116496;28;20179;-82
2022/03/20 03:44:58;;;;;;;2.40;1.63;;;;;;;0.00;48.55;101287.38;5116172;28;20894;-82
2022/03/20 03:47:24;;;;;;;2.30;1.20;;;;;;;0.13;48.21;101285.94;5097848;28;20461;-82
2022/03/20 03:49:50;;;;;;;3.57;2.23;;;;;;;0.23;47.78;101281.03;5115771;28;20821;-82
2022/03/20 03:52:16;;;;;;;6.13;1.90;;;;;;;0.14;47.94;101293.69;5097772;28;20176;-82
2022/03/20 03:54:42;;;;;;;3.80;2.93;;;;;;;0.10;47.80;101291.03;5116222;28;20424;-82
2022/03/20 03:57:07;;;;;;;3.43;1.90;;;;;;;0.20;47.93;101286.13;5115623;28;20203;-82
2022/03/20 03:59:33;;;;;;;4.57;3.03;;;;;;;0.15;48.42;101286.84;5115563;28;20180;-82
2022/03/20 04:02:00;;;;;;;6.57;2.40;;;;;;;0.08;48.44;101285.81;5097578;28;20191;-82
2022/03/20 04:04:26;;;;;;;6.27;3.03;;;;;;;0.33;47.89;101289.84;5097557;28;20266;-82
2022/03/20 04:06:52;;;;;;;1.93;1.73;;;;;;;0.46;47.53;101289.28;5115354;28;20462;-82
2022/03/20 04:09:17;;;;;;;8.53;3.03;;;;;;;0.28;47.92;101292.34;5114659;28;20510;-83
2022/03/20 04:11:43;;;;;;;1.57;1.37;;;;;;;0.21;47.58;101297.31;5097295;28;20184;-82
2022/03/20 04:14:08;;;;;;;4.17;1.90;;;;;;;0.08;48.11;101297.84;5097336;28;20187;-82
2022/03/20 04:16:34;;;;;;;3.27;1.40;;;;;;;0.03;48.00;101299.47;5097303;28;20191;-81
2022/03/20 04:18:59;;;;;;;14.80;2.97;;;;;;;0.26;47.25;101300.88;5115171;28;20171;-82
2022/03/20 04:21:25;;;;;;;1.47;1.17;;;;;;;0.29;47.22;101290.63;5115231;28;20229;-82
2022/03/20 04:23:50;;;;;;;4.43;1.97;;;;;;;0.27;46.88;101295.72;5115110;28;20276;-82
2022/03/20 04:26:20;;;;;;;4.13;2.00;;;;;;;0.38;46.64;101296.84;5096967;28;20202;-82
2022/03/20 04:28:49;;;;;;;4.47;1.63;;;;;;;0.37;47.02;101305.41;5115296;28;20180;-82
2022/03/20 04:31:15;;;;;;;1.50;1.30;;;;;;;0.49;46.35;101297.97;5097000;28;20423;-82
2022/03/20 04:33:53;;;;;;;1.23;0.90;;;;;;;0.35;45.95;101306.22;5115449;28;20417;-82
2022/03/20 04:36:23;;;;;;;1.73;1.13;;;;;;;0.52;46.61;101305.75;5096926;28;20407;-82
2022/03/20 04:38:54;;;;;;;1.33;1.23;;;;;;;0.38;46.07;101301.13;5115346;28;20737;-82
2022/03/20 04:41:20;;;;;;;4.10;1.47;;;;;;;0.49;46.24;101300.56;5115060;28;20755;-82
2022/03/20 04:43:52;;;;;;;2.77;1.40;;;;;;;0.66;45.99;101300.91;5114763;28;20911;-82
2022/03/20 04:46:19;;;;;;;2.63;1.63;;;;;;;0.81;45.56;101296.09;5115127;28;20253;-82
2022/03/20 04:59:41;;;;;;;5.67;2.30;;;;;;;0.42;46.22;101298.66;5114762;28;20394;-82
2022/03/20 05:02:06;;;;;;;1.07;0.97;;;;;;;0.47;46.68;101312.53;5114372;28;20418;-82
2022/03/20 05:04:32;;;;;;;3.80;1.80;;;;;;;0.46;47.00;101310.81;5114305;28;20183;-82
2022/03/20 05:06:57;;;;;;;4.83;3.03;;;;;;;0.75;46.79;101310.56;5114228;28;20656;-82
2022/03/20 05:14:51;;;;;;;2.43;1.47;;;;;;;0.93;46.44;101316.13;5114433;28;20400;-82
2022/03/20 05:17:17;;;;;;;2.73;1.60;;;;;;;0.72;46.12;101311.38;5114070;28;20411;-82
2022/03/20 05:19:42;;;;;;;5.23;2.40;;;;;;;0.76;46.21;101325.22;5114222;28;20556;-82
2022/03/20 05:22:10;;;;;;;1.03;0.93;;;;;;;0.78;45.77;101313.22;5114198;28;20177;-83
2022/03/20 05:24:37;;;;;;;2.67;1.70;;;;;;;0.90;45.94;101318.63;5114332;28;20266;-82
2022/03/20 05:27:04;;;;;;;5.07;2.73;;;;;;;1.12;45.31;101315.66;5114141;28;20454;-82
2022/03/20 05:29:30;;;;;;;4.47;2.20;;;;;;;1.23;45.21;101316.75;5114515;28;20418;-82
2022/03/20 05:31:55;;;;;;;2.97;2.13;;;;;;;1.47;44.82;101317.22;5113913;28;20903;-82
2022/03/20 05:34:22;;;;;;;3.13;2.30;;;;;;;1.45;44.49;101315.44;5114353;28;20264;-82
2022/03/20 05:36:48;;;;;;;2.63;1.40;;;;;;;1.77;44.48;101315.19;5114088;28;20177;-82
2022/03/20 05:39:14;;;;;;;4.37;1.93;;;;;;;2.25;43.75;101311.69;5113835;28;20412;-82
2022/03/20 05:41:51;;;;;;;2.27;1.83;;;;;;;2.62;41.62;101306.19;5114098;28;20435;-83
2022/03/20 05:44:25;;;;;;;2.07;1.70;;;;;;;3.12;41.33;101301.66;5095905;28;20614;-83
2022/03/20 05:46:51;;;;;;;2.10;1.63;;;;;;;3.19;40.91;101303.50;5113650;28;20525;-83
2022/03/20 05:49:22;;;;;;;2.20;1.60;;;;;;;3.22;41.20;101294.88;5113927;28;20640;-83
2022/03/20 05:51:49;;;;;;;2.43;1.83;;;;;;;3.51;40.18;101303.84;5095800;28;20195;-83
2022/03/20 05:54:16;;;;;;;4.97;2.20;;;;;;;3.47;40.12;101302.94;5113638;28;20172;-82
2022/03/20 05:59:26;;;;;;;1.33;1.00;;;;;;;3.39;39.74;101314.94;5114431;28;20198;-83
2022/03/20 06:01:52;;;;;;;5.53;2.43;;;;;;;3.45;39.85;101303.78;5095597;28;20187;-83
2022/03/20 06:04:21;;;;;;;4.30;1.93;;;;;;;3.35;40.88;101312.31;5113798;28;20203;-83
2022/03/20 06:06:48;;;;;;;4.70;2.17;;;;;;;3.65;40.51;101312.63;5113440;28;20196;-82
2022/03/20 06:09:15;;;;;;;4.13;2.23;;;;;;;3.88;40.18;101310.28;5095531;28;20179;-83
2022/03/20 06:11:41;;;;;;;2.23;1.40;;;;;;;3.91;39.97;101313.75;5113638;28;20176;-83
2022/03/20 06:14:07;;;;;;;6.33;2.10;;;;;;;4.20;39.48;101314.00;5095555;28;20255;-83
2022/03/20 06:16:34;;;;;;;6.33;1.83;;;;;;;4.90;38.21;101304.94;5113435;28;20178;-83
2022/03/20 06:19:00;;;;;;;2.13;1.67;;;;;;;5.29;36.89;101306.84;5113414;28;20171;-85
2022/03/20 06:21:26;;;;;;;3.93;2.23;;;;;;;5.39;37.39;101304.28;5113385;28;20182;-84
2022/03/20 06:23:55;;;;;;;4.13;2.30;;;;;;;5.64;37.83;101307.78;5095696;28;20631;-84
2022/03/20 06:26:24;;;;;;;4.97;2.27;;;;;;;6.48;35.69;101306.97;5113217;28;20188;-85
2022/03/20 06:28:50;;;;;;;5.00;1.87;;;;;;;6.71;34.66;101305.19;5095364;28;20221;-84
2022/03/20 06:31:18;;;;;;;5.43;2.43;;;;;;;7.51;34.01;101304.00;5095361;28;20183;-85
2022/03/20 06:33:44;;;;;;;10.77;3.27;;;;;;;7.31;33.74;101308.47;5116779;28;20615;-85
2022/03/20 06:36:10;;;;;;;10.07;2.40;;;;;;;7.27;33.49;101301.53;5117250;28;20264;-85
2022/03/20 06:38:36;;;;;;;7.53;2.00;;;;;;;7.68;33.22;101294.31;5099277;28;20252;-85
2022/03/20 06:41:03;;;;;;;4.97;2.60;;;;;;;7.80;32.46;101289.03;5099238;28;20205;-85
2022/03/20 06:43:29;;;;;;;8.53;3.07;;;;;;;8.05;33.04;101287.97;5099146;28;20240;-85
2022/03/20 06:45:56;;;;;;;2.63;1.40;;;;;;;8.34;31.53;101292.09;5117341;28;20213;-86
2022/03/20 06:48:22;;;;;;;5.43;2.80;;;;;;;7.92;33.17;101291.56;5117568;28;20618;-85
2022/03/20 06:50:48;;;;;;;5.50;2.53;;;;;;;8.30;31.58;101274.72;5117019;28;20640;-86
2022/03/20 06:53:13;;;;;;;3.77;1.90;;;;;;;8.13;31.77;101282.66;5098953;28;20196;-86
2022/03/20 06:55:40;;;;;;;4.73;2.07;;;;;;;7.88;31.19;101297.69;5116881;28;20244;-85
2022/03/20 06:58:05;;;;;;;5.60;2.37;;;;;;;8.00;32.13;101297.59;5117156;28;20179;-86
2022/03/20 07:00:31;;;;;;;3.17;2.00;;;;;;;8.06;31.46;101291.44;5116811;28;20173;-86
2022/03/20 07:03:03;;;;;;;1.33;0.90;;;;;;;7.98;30.93;101299.34;5098825;28;20204;-86
2022/03/20 07:05:29;;;;;;;4.07;1.97;;;;;;;7.53;31.93;101307.47;5098651;28;20182;-87
2022/03/20 07:07:55;;;;;;;3.17;1.60;;;;;;;7.99;31.58;101292.38;5116661;28;20174;-88
2022/03/20 07:10:22;;;;;;;1.23;0.80;;;;;;;7.69;30.24;101295.19;5116624;28;20175;-87
2022/03/20 07:12:49;;;;;;;5.13;2.37;;;;;;;7.27;31.59;101297.19;5098596;28;20579;-87
2022/03/20 07:15:17;;;;;;;2.60;1.87;;;;;;;6.97;31.77;101296.44;5099089;28;20187;-87
2022/03/20 07:17:45;;;;;;;2.87;1.33;;;;;;;7.44;32.11;101294.50;5098595;28;20245;-87
2022/03/20 07:20:11;;;;;;;5.20;1.87;;;;;;;7.13;32.12;101292.88;5116462;28;20254;-88
2022/03/20 07:22:37;;;;;;;4.27;1.87;;;;;;;6.91;31.90;101296.47;5116415;28;20230;-87
2022/03/20 07:30:34;;;;;;;1.40;1.03;;;;;;;7.20;32.47;101289.41;5117126;28;20652;-86
2022/03/20 07:32:59;;;;;;;4.97;2.17;;;;;;;6.88;32.20;101291.25;5098176;28;20227;-87
2022/03/20 07:35:25;;;;;;;4.67;2.27;;;;;;;6.86;32.30;101283.44;5116149;28;20635;-87
2022/03/20 07:37:51;;;;;;;7.57;2.63;;;;;;;6.63;33.66;101286.09;5116082;28;20320;-86
2022/03/20 07:40:17;;;;;;;2.30;1.13;;;;;;;6.69;33.02;101278.28;5116356;28;20236;-85
2022/03/20 07:42:43;;;;;;;10.90;1.50;;;;;;;6.65;33.83;101286.13;5116232;28;20179;-85
2022/03/20 07:45:09;;;;;;;2.73;1.10;;;;;;;6.87;33.65;101284.28;5097944;28;20176;-87
2022/03/20 07:47:35;;;;;;;3.50;1.97;;;;;;;6.65;32.84;101283.50;5115841;28;20219;-86
2022/03/20 07:50:02;;;;;;;4.20;1.37;;;;;;;6.48;33.40;101275.72;5115830;28;20182;-86
2022/03/20 07:52:29;;;;;;;3.60;1.47;;;;;;;6.52;33.31;101271.38;5097797;28;20181;-86
2022/03/20 07:54:54;;;;;;;8.17;3.03;;;;;;;6.83;32.32;101262.59;5115743;28;20323;-86
2022/03/20 07:57:20;;;;;;;8.93;2.73;;;;;;;7.06;32.87;101254.66;5115734;28;20175;-85
2022/03/20 07:59:46;;;;;;;3.50;1.70;;;;;;;7.03;31.66;101265.13;5097661;28;20178;-86
2022/03/20 08:02:12;;;;;;;3.13;2.00;;;;;;;7.08;31.91;101252.91;5115586;28;20172;-86
2022/03/20 08:04:38;;;;;;;2.47;1.10;;;;;;;7.09;31.62;101254.66;5097622;28;20191;-87
2022/03/20 08:07:04;;;;;;;4.00;1.40;;;;;;;7.09;31.30;101254.66;5115713;28;20249;-87
2022/03/20 08:09:30;;;;;;;1.03;0.93;;;;;;;7.26;30.56;101247.59;5097804;28;20274;-88
2022/03/20 08:11:56;;;;;;;3.53;1.77;;;;;;;7.20;31.18;101252.88;5115321;28;20270;-88
2022/03/20 08:14:23;;;;;;;3.37;1.63;;;;;;;7.64;31.09;101240.44;5115370;28;20208;-87
2022/03/20 08:16:49;;;;;;;1.90;1.00;;;;;;;7.25;29.88;101241.56;5097360;28;20267;-86
2022/03/20 08:19:17;;;;;;;3.13;1.60;;;;;;;7.32;30.34;101240.63;5115528;28;20168;-86
2022/03/20 08:21:43;;;;;;;2.07;1.13;;;;;;;7.54;31.13;101243.09;5097860;28;20207;-87
2022/03/20 08:24:09;;;;;;;5.80;2.23;;;;;;;7.80;30.83;101233.34;5115205;28;20188;-86
2022/03/20 08:26:35;;;;;;;4.00;1.63;;;;;;;8.21;31.29;101219.91;5097412;28;20207;-87
2022/03/20 08:29:02;;;;;;;1.47;1.00;;;;;;;7.75;29.51;101228.16;5097398;28;20233;-85
2022/03/20 08:31:29;;;;;;;4.70;2.10;;;;;;;7.87;31.97;101224.56;5097903;28;20653;-86
2022/03/20 08:33:57;;;;;;;7.37;2.80;;;;;;;8.22;30.84;101221.66;5097255;28;20179;-87
2022/03/20 08:36:24;;;;;;;4.63;1.67;;;;;;;8.67;31.55;101222.94;5114944;28;20164;-86
2022/03/20 08:38:50;;;;;;;3.83;1.50;;;;;;;8.43;30.25;101218.84;5114891;28;20510;-86
2022/03/20 08:41:16;;;;;;;3.40;1.93;;;;;;;8.45;31.22;101220.56;5097149;28;20211;-85
2022/03/20 08:43:42;;;;;;;5.37;2.00;;;;;;;8.20;30.61;101223.41;5114810;28;20210;-86
2022/03/20 08:46:07;;;;;;;4.30;2.17;;;;;;;8.52;31.10;101219.59;5097838;28;20207;-85
2022/03/20 08:48:33;;;;;;;4.53;2.30;;;;;;;8.21;30.95;101204.22;5096770;28;20562;-86
2022/03/20 08:50:58;;;;;;;1.57;1.07;;;;;;;8.01;30.13;101202.69;5114902;28;20226;-87
2022/03/20 08:53:25;;;;;;;2.07;1.37;;;;;;;7.62;31.64;101213.47;5096906;28;20191;-85
2022/03/20 08:55:51;;;;;;;6.00;1.60;;;;;;;7.65;31.16;101210.81;5114060;28;20296;-86
2022/03/20 08:58:17;;;;;;;2.50;1.47;;;;;;;8.00;31.18;101195.72;5114536;28;20637;-88
2022/03/20 09:00:43;;;;;;;8.27;2.00;;;;;;;7.95;31.97;101192.28;5114496;28;20168;-87
2022/03/20 09:03:13;;;;;;;4.93;2.57;;;;;;;8.24;32.80;101191.13;5114988;28;20605;-85
2022/03/20 09:05:39;;;;;;;5.87;2.10;;;;;;;8.55;31.31;101192.56;5096290;28;20270;-85
2022/03/20 09:08:05;;;;;;;4.40;2.13;;;;;;;8.48;32.34;101185.69;5114297;28;20262;-85
2022/03/20 09:10:31;;;;;;;4.53;2.37;;;;;;;8.85;32.51;101183.50;5114298;28;20254;-86
2022/03/20 09:13:00;;;;;;;3.37;1.67;;;;;;;8.45;31.04;101181.38;5096413;28;20605;-86
2022/03/20 09:15:26;;;;;;;6.27;2.10;;;;;;;8.73;31.08;101171.44;5096595;28;20244;-87
2022/03/20 09:20:39;;;;;;;4.17;1.70;;;;;;;8.92;30.11;101164.22;5114455;28;20178;-89
2022/03/20 09:23:06;;;;;;;4.00;2.13;;;;;;;9.20;30.24;101174.25;5114374;28;20199;-87
2022/03/20 09:25:32;;;;;;;2.73;1.43;;;;;;;9.40;29.96;101160.03;5095996;28;20180;-86
2022/03/20 09:27:59;;;;;;;3.90;2.07;;;;;;;9.23;30.53;101161.13;5114009;28;20176;-86
2022/03/20 09:30:24;;;;;;;4.13;1.90;;;;;;;9.46;30.62;101154.69;5096081;28;20267;-86
2022/03/20 09:32:50;;;;;;;3.30;1.97;;;;;;;9.58;29.93;101147.50;5096263;28;20243;-88
2022/03/20 09:35:17;;;;;;;3.40;1.50;;;;;;;9.63;30.18;101152.66;5114148;28;20172;-87
2022/03/20 09:37:43;;;;;;;6.90;1.87;;;;;;;9.92;29.32;101141.69;5113803;28;20170;-86
2022/03/20 09:40:12;;;;;;;4.67;2.03;;;;;;;9.77;28.84;101148.06;5113890;28;20178;-87
2022/03/20 09:42:39;;;;;;;6.30;1.47;;;;;;;10.13;30.36;101139.56;5096127;28;20296;-86
2022/03/20 09:45:06;;;;;;;3.37;1.73;;;;;;;9.93;28.17;101130.31;5113995;28;20188;-88
2022/03/20 09:47:41;;;;;;;2.33;1.60;;;;;;;10.05;28.04;101125.72;5114201;28;20210;-87
2022/03/20 09:50:09;;;;;;;2.30;1.20;;;;;;;9.90;29.85;101136.47;5113663;28;20266;-87
2022/03/20 09:52:36;;;;;;;3.47;1.73;;;;;;;10.04;29.10;101131.84;5113631;28;20734;-86
2022/03/20 09:55:04;;;;;;;5.27;1.90;;;;;;;10.61;27.71;101131.63;5113597;28;20175;-86
2022/03/20 09:57:30;;;;;;;3.80;1.80;;;;;;;10.87;23.71;101135.44;5114126;28;20167;-87
2022/03/20 09:59:57;;;;;;;6.53;1.50;;;;;;;11.00;23.58;101117.66;5113577;28;20542;-86
2022/03/20 10:02:27;;;;;;;3.83;1.87;;;;;;;11.29;23.98;101117.84;5096151;28;20615;-86
2022/03/20 10:04:57;;;;;;;3.30;1.07;;;;;;;11.43;23.27;101113.09;5095903;28;20174;-86
2022/03/20 10:07:24;;;;;;;1.80;1.03;;;;;;;11.57;22.49;101115.38;5114440;28;20286;-87
2022/03/20 10:10:07;;;;;;;3.03;0.97;;;;;;;11.45;22.33;101103.41;5117774;28;20267;-86
2022/03/20 10:12:34;;;;;;;2.40;0.90;;;;;;;11.42;23.46;101108.75;5117672;28;20198;-87
2022/03/20 10:14:59;;;;;;;2.67;0.97;;;;;;;11.00;21.69;101108.00;5117718;28;20179;-85
2022/03/20 10:17:25;;;;;;;3.57;1.13;;;;;;;11.16;22.63;101119.03;5117915;28;20539;-87
2022/03/20 10:19:50;;;;;;;2.07;1.27;;;;;;;11.05;22.17;101107.91;5099966;28;20183;-87
2022/03/20 10:22:17;;;;;;;1.77;0.83;;;;;;;11.24;22.26;101106.53;5117894;28;20186;-86
2022/03/20 10:24:49;;;;;;;1.83;1.00;;;;;;;11.63;23.13;101081.91;5099499;28;20183;-88
2022/03/20 10:27:14;;;;;;;2.13;1.00;;;;;;;11.68;22.78;101095.88;5099700;28;20195;-86
2022/03/20 10:29:55;;;;;;;7.57;1.67;;;;;;;11.66;22.21;101087.09;5099465;28;20182;-87
2022/03/20 10:32:22;;;;;;;3.20;1.17;;;;;;;11.28;20.80;101087.22;5117955;28;20246;-88
2022/03/20 10:34:57;;;;;;;1.23;0.80;;;;;;;11.44;21.38;101078.06;5117332;28;20167;-87
2022/03/20 10:37:49;;;;;;;1.50;0.90;;;;;;;11.85;21.40;101082.25;5117351;28;20163;-87
2022/03/20 10:40:32;;;;;;;7.23;1.67;;;;;;;11.98;20.99;101080.16;5117458;28;20176;-88
2022/03/20 10:43:08;;;;;;;1.27;0.87;;;;;;;11.80;22.23;101070.16;5099209;28;20172;-87
2022/03/20 10:46:00;;;;;;;3.43;0.83;;;;;;;11.78;22.07;101074.59;5117072;28;20179;-87
2022/03/20 10:48:46;;;;;;;4.47;2.17;;;;;;;12.24;21.72;101073.28;5117361;28;20157;-87
2022/03/20 10:51:11;;;;;;;2.67;1.00;;;;;;;12.04;19.92;101065.09;5117303;28;20221;-85
2022/03/20 10:54:01;;;;;;;2.60;1.10;;;;;;;11.30;21.56;101071.41;5117255;28;20179;-86
2022/03/20 10:56:27;;;;;;;5.63;1.67;;;;;;;11.54;20.46;101066.41;5117188;28;20164;-87
2022/03/20 10:58:52;;;;;;;4.93;2.30;;;;;;;11.86;20.91;101067.34;5098863;28;20265;-87
2022/03/20 11:01:18;;;;;;;2.27;1.30;;;;;;;11.57;21.30;101065.47;5117270;28;20186;-90
2022/03/20 11:03:46;;;;;;;2.80;1.10;;;;;;;11.58;20.98;101062.78;5117351;28;20156;-88
2022/03/20 11:06:13;;;;;;;2.43;1.10;;;;;;;11.69;20.13;101059.91;5116621;28;20644;-87
2022/03/20 11:08:39;;;;;;;6.00;1.93;;;;;;;12.21;20.66;101044.44;5116651;28;20175;-88
2022/03/20 11:11:10;;;;;;;2.33;0.90;;;;;;;12.35;20.70;101051.91;5116665;28;20506;-88
2022/03/20 11:13:38;;;;;;;2.73;1.33;;;;;;;12.21;20.83;101043.59;5098593;28;20206;-87
2022/03/20 11:16:08;;;;;;;3.87;1.20;;;;;;;11.98;19.49;101031.09;5116603;28;20179;-88
2022/03/20 11:18:35;;;;;;;2.40;1.20;;;;;;;12.04;20.33;101024.78;5116361;28;20168;-87
2022/03/20 11:21:05;;;;;;;3.43;1.53;;;;;;;11.72;20.29;101028.31;5116489;28;20262;-84
2022/03/20 11:23:33;;;;;;;2.27;1.13;;;;;;;11.71;22.12;101040.59;5116362;28;20181;-87
2022/03/20 11:26:01;;;;;;;2.03;1.13;;;;;;;12.18;21.77;101027.91;5098553;28;20201;-87
2022/03/20 11:28:30;;;;;;;1.97;0.80;;;;;;;12.68;20.41;101027.22;5116594;28;20606;-87
2022/03/20 11:30:58;;;;;;;2.43;1.07;;;;;;;12.87;20.55;101027.50;5116250;28;20258;-87
2022/03/20 11:33:25;;;;;;;2.17;1.10;;;;;;;12.45;19.97;101021.81;5116202;28;20177;-88
2022/03/20 11:35:51;;;;;;;2.63;1.37;;;;;;;12.46;20.38;101018.28;5116115;28;20171;-88
2022/03/20 11:38:24;;;;;;;4.73;1.40;;;;;;;12.55;20.40;101007.47;5116317;28;20240;-88
2022/03/20 11:41:09;;;;;;;2.00;1.33;;;;;;;12.77;19.90;101002.41;5116028;28;20688;-88
2022/03/20 11:43:40;;;;;;;3.23;1.53;;;;;;;12.54;20.40;101008.38;5116864;28;20160;-89
2022/03/20 11:46:34;;;;;;;2.83;1.40;;;;;;;12.09;21.66;101009.75;5098057;28;20300;-91
2022/03/20 11:49:17;;;;;;;2.37;0.93;;;;;;;12.28;20.32;100995.16;5116398;28;20487;-89
2022/03/20 11:52:07;;;;;;;3.10;1.27;;;;;;;12.13;19.61;101011.41;5116469;28;20267;-87
2022/03/20 11:54:41;;;;;;;3.17;1.40;;;;;;;11.81;19.18;101011.44;5108017;28;20277;-89
2022/03/20 11:57:26;;;;;;;3.90;1.60;;;;;;;11.75;21.07;101007.22;5115761;28;20236;-89
2022/03/20 11:59:54;;;;;;;2.43;1.13;;;;;;;11.82;19.96;101007.94;5115965;28;20180;-86
2022/03/20 12:02:28;;;;;;;1.97;1.17;;;;;;;11.89;20.85;101005.09;5097600;28;20622;-88
2022/03/20 12:05:15;;;;;;;3.40;1.30;;;;;;;12.42;20.95;100987.69;5115881;28;20168;-88
2022/03/20 12:07:54;;;;;;;3.83;1.27;;;;;;;12.15;20.18;100975.41;5115727;28;20187;-88